Time;durP1;ratioP1;P1;durP2;ratioP2;P2;SDS_P1;SDS_P2;PMS_P1;PMS_P2;Temp;Humidity;BMP_temperature;BMP_pressure;BME280_temperature;BME280_humidity;BME280_pressure;Samples;Min_cycle;Max_cycle;Signal;HPM_P1;HPM_P2
2023/08/07 00:00:42;;;;;;;7.03;0.47;;;13.30;99.90;;;;;;4955189;28;20066;-88
2023/08/07 00:03:08;;;;;;;7.60;0.45;;;13.30;99.90;;;;;;4961709;28;20428;-84
2023/08/07 00:05:34;;;;;;;5.60;0.60;;;13.30;99.90;;;;;;4941894;28;20019;-81
2023/08/07 00:08:00;;;;;;;5.88;0.65;;;13.20;99.90;;;;;;4956176;28;20452;-81
2023/08/07 00:10:26;;;;;;;3.85;0.50;;;13.20;99.90;;;;;;4955247;28;20475;-82
2023/08/07 00:12:52;;;;;;;7.22;0.50;;;13.20;99.90;;;;;;4942121;28;20526;-81
2023/08/07 00:15:18;;;;;;;7.88;0.82;;;13.10;99.90;;;;;;4951474;28;20026;-81
2023/08/07 00:17:44;;;;;;;6.30;0.73;;;13.20;99.90;;;;;;4941057;28;20039;-81
2023/08/07 00:20:10;;;;;;;5.82;0.50;;;13.10;99.90;;;;;;4960105;28;20508;-81
2023/08/07 00:22:35;;;;;;;5.65;0.60;;;13.10;99.90;;;;;;4958814;28;21043;-81
2023/08/07 00:25:01;;;;;;;4.70;0.40;;;13.10;99.90;;;;;;4943402;28;20050;-84
2023/08/07 00:27:27;;;;;;;4.20;0.55;;;13.10;99.90;;;;;;4942670;28;20042;-81
2023/08/07 00:29:53;;;;;;;5.50;0.50;;;13.10;99.90;;;;;;4946211;28;20030;-81
2023/08/07 00:32:18;;;;;;;7.70;1.15;;;13.10;99.90;;;;;;4967771;28;20043;-82
2023/08/07 00:34:44;;;;;;;3.80;0.38;;;13.00;99.90;;;;;;4967917;28;20050;-86
2023/08/07 00:37:11;;;;;;;3.22;0.52;;;13.00;99.90;;;;;;4942467;28;20105;-81
2023/08/07 00:39:37;;;;;;;3.15;0.30;;;13.00;99.90;;;;;;4948025;28;20066;-81
2023/08/07 00:42:03;;;;;;;3.22;0.30;;;13.00;99.90;;;;;;4957420;28;20022;-85
2023/08/07 00:44:28;;;;;;;3.88;0.52;;;13.00;99.90;;;;;;4965660;28;20496;-81
2023/08/07 00:46:54;;;;;;;4.15;0.32;;;13.00;99.90;;;;;;4962699;28;20118;-82
2023/08/07 00:49:20;;;;;;;2.85;0.32;;;13.00;99.90;;;;;;4950876;28;20030;-80
2023/08/07 00:51:47;;;;;;;3.45;0.20;;;13.10;99.90;;;;;;4949043;28;20048;-82
2023/08/07 00:54:16;;;;;;;2.70;0.30;;;13.10;99.90;;;;;;4942556;28;20095;-82
2023/08/07 00:56:42;;;;;;;5.13;0.20;;;13.10;99.90;;;;;;4946736;28;20117;-81
2023/08/07 00:59:09;;;;;;;3.28;0.20;;;13.10;99.90;;;;;;4964076;28;20037;-84
2023/08/07 01:01:36;;;;;;;2.42;0.20;;;13.20;99.90;;;;;;4952204;28;20033;-81
2023/08/07 01:04:03;;;;;;;1.35;0.20;;;13.10;99.90;;;;;;4963522;28;20031;-82
2023/08/07 01:06:29;;;;;;;1.85;0.32;;;13.10;99.90;;;;;;4946201;28;20030;-81
2023/08/07 01:08:55;;;;;;;4.97;0.20;;;13.20;99.90;;;;;;4942289;28;20031;-81
2023/08/07 01:11:48;;;;;;;4.65;0.20;;;13.20;99.90;;;;;;4957523;28;20059;-83
2023/08/07 01:14:44;;;;;;;3.70;0.30;;;13.20;99.90;;;;;;4941557;28;20492;-81
2023/08/07 01:17:11;;;;;;;2.58;0.30;;;13.20;99.90;;;;;;4947926;28;20454;-81
2023/08/07 01:19:38;;;;;;;1.67;0.20;;;13.20;99.90;;;;;;4940540;28;20035;-83
2023/08/07 01:22:10;;;;;;;3.08;0.30;;;13.20;99.90;;;;;;4958961;28;20034;-85
2023/08/07 01:24:40;;;;;;;3.75;0.30;;;13.20;99.90;;;;;;4967716;28;20106;-82
2023/08/07 01:27:18;;;;;;;2.97;0.30;;;13.20;99.90;;;;;;4944414;28;20041;-83
2023/08/07 01:29:59;;;;;;;2.40;0.50;;;13.20;99.90;;;;;;4966382;28;20027;-81
2023/08/07 01:32:36;;;;;;;5.78;0.50;;;13.10;99.90;;;;;;4947180;28;20041;-85
2023/08/07 01:35:03;;;;;;;7.13;0.70;;;13.10;99.90;;;;;;4951027;28;20074;-82
2023/08/07 01:37:31;;;;;;;9.82;0.55;;;13.10;99.90;;;;;;4959564;28;20475;-82
2023/08/07 01:40:00;;;;;;;5.85;0.55;;;13.10;99.90;;;;;;4960464;28;20027;-82
2023/08/07 01:42:27;;;;;;;4.65;0.40;;;13.10;99.90;;;;;;4942575;28;20445;-82
2023/08/07 01:44:52;;;;;;;9.93;0.60;;;13.10;99.90;;;;;;4948110;28;20030;-84
2023/08/07 01:47:18;;;;;;;6.40;0.50;;;13.10;99.90;;;;;;4976166;28;20542;-82
2023/08/07 01:49:44;;;;;;;5.28;0.40;;;13.10;99.90;;;;;;4964821;28;20027;-82
2023/08/07 01:52:11;;;;;;;7.38;0.40;;;13.10;99.90;;;;;;4965125;28;20042;-83
2023/08/07 01:54:37;;;;;;;4.72;0.50;;;13.10;99.90;;;;;;4956220;28;20027;-79
2023/08/07 01:57:02;;;;;;;8.30;0.65;;;13.10;99.90;;;;;;4961456;28;20122;-82
2023/08/07 01:59:28;;;;;;;5.50;0.60;;;13.10;99.90;;;;;;4945149;28;20023;-80
2023/08/07 02:01:54;;;;;;;6.80;0.60;;;13.10;99.90;;;;;;4948500;28;20107;-83
2023/08/07 02:04:20;;;;;;;6.72;0.93;;;13.10;99.90;;;;;;4963897;28;20046;-81
2023/08/07 02:06:46;;;;;;;7.75;1.08;;;13.10;99.90;;;;;;4963001;28;20015;-82
2023/08/07 02:09:11;;;;;;;8.25;0.77;;;13.00;99.90;;;;;;4946696;28;20096;-81
2023/08/07 02:11:37;;;;;;;7.35;0.50;;;13.00;99.90;;;;;;4965293;28;20058;-83
2023/08/07 02:14:03;;;;;;;7.95;0.82;;;13.10;99.90;;;;;;4942254;28;20407;-81
2023/08/07 02:16:29;;;;;;;10.20;0.77;;;13.10;99.90;;;;;;4944037;28;20034;-82
2023/08/07 02:18:55;;;;;;;7.18;0.73;;;13.00;99.90;;;;;;4949128;28;20456;-81
2023/08/07 02:21:21;;;;;;;3.97;0.55;;;13.00;99.90;;;;;;4964970;28;20528;-80
2023/08/07 02:23:46;;;;;;;4.30;0.80;;;13.00;99.90;;;;;;4961053;28;20082;-79
2023/08/07 02:26:12;;;;;;;5.32;0.70;;;13.00;99.90;;;;;;4940165;28;20065;-81
2023/08/07 02:28:38;;;;;;;11.30;1.05;;;13.10;99.90;;;;;;4956794;28;20031;-81
2023/08/07 02:31:03;;;;;;;10.43;1.08;;;13.00;99.90;;;;;;4958614;28;20065;-81
2023/08/07 02:33:30;;;;;;;7.53;1.05;;;13.10;99.90;;;;;;4940103;28;20459;-81
2023/08/07 02:35:56;;;;;;;14.90;1.05;;;13.10;99.90;;;;;;4960026;28;20042;-82
2023/08/07 02:38:22;;;;;;;10.93;1.05;;;13.10;99.90;;;;;;4962430;28;20031;-81
2023/08/07 02:40:48;;;;;;;8.30;1.08;;;13.10;99.90;;;;;;4945256;28;20023;-84
2023/08/07 02:43:13;;;;;;;7.30;0.80;;;13.10;99.90;;;;;;4964881;28;20498;-80
2023/08/07 02:45:39;;;;;;;11.35;1.50;;;13.10;99.90;;;;;;4946572;28;20023;-84
2023/08/07 02:48:05;;;;;;;8.13;0.82;;;13.10;99.90;;;;;;4958701;28;20043;-81
2023/08/07 02:50:32;;;;;;;9.20;1.65;;;13.10;99.90;;;;;;4943553;28;20023;-81
2023/08/07 02:52:59;;;;;;;9.27;1.17;;;13.10;99.90;;;;;;4962576;28;20085;-86
2023/08/07 02:55:25;;;;;;;7.60;1.10;;;13.10;99.90;;;;;;4962657;28;20052;-82
2023/08/07 02:57:50;;;;;;;11.73;1.25;;;13.10;99.90;;;;;;4971919;28;20059;-83
2023/08/07 03:00:16;;;;;;;8.52;1.23;;;13.10;99.90;;;;;;4941877;28;20133;-84
2023/08/07 03:02:42;;;;;;;6.78;0.90;;;13.10;99.90;;;;;;4960140;28;20399;-80
2023/08/07 03:05:08;;;;;;;9.23;0.82;;;13.10;99.90;;;;;;4964228;28;20073;-82
2023/08/07 03:07:34;;;;;;;9.27;1.13;;;13.00;99.90;;;;;;4964339;28;20039;-81
2023/08/07 03:10:00;;;;;;;6.72;1.15;;;13.00;99.90;;;;;;4950542;28;20046;-84
2023/08/07 03:12:26;;;;;;;12.68;1.05;;;13.00;99.90;;;;;;4942315;28;20498;-83
2023/08/07 03:14:51;;;;;;;8.63;1.15;;;13.00;99.90;;;;;;4944882;28;20390;-80
2023/08/07 03:17:17;;;;;;;8.48;1.10;;;12.90;99.90;;;;;;4955426;28;20070;-81
2023/08/07 03:19:43;;;;;;;13.27;1.20;;;12.90;99.90;;;;;;4950020;28;20030;-82
2023/08/07 03:22:09;;;;;;;9.88;1.85;;;12.90;99.90;;;;;;4948104;28;20081;-81
2023/08/07 03:24:35;;;;;;;12.07;1.25;;;12.90;99.90;;;;;;4957806;28;20027;-81
2023/08/07 03:27:01;;;;;;;6.90;1.02;;;12.90;99.90;;;;;;4963537;28;20037;-81
2023/08/07 03:29:27;;;;;;;7.55;1.15;;;12.90;99.90;;;;;;4960303;28;20026;-83
2023/08/07 03:31:53;;;;;;;7.75;0.98;;;12.90;99.90;;;;;;4941849;28;20495;-84
2023/08/07 03:34:19;;;;;;;9.18;1.08;;;13.00;99.90;;;;;;4963111;28;20078;-81
2023/08/07 03:36:45;;;;;;;8.27;0.90;;;13.00;99.90;;;;;;4960605;28;20031;-82
2023/08/07 03:39:12;;;;;;;10.10;1.27;;;13.00;99.90;;;;;;4961953;28;20023;-81
2023/08/07 03:41:38;;;;;;;8.63;1.40;;;13.00;99.90;;;;;;4946409;28;20026;-82
2023/08/07 03:44:06;;;;;;;9.90;1.25;;;13.00;99.90;;;;;;4960463;28;20030;-82
2023/08/07 03:46:32;;;;;;;5.30;1.08;;;13.00;99.90;;;;;;4952344;28;20114;-83
2023/08/07 03:48:58;;;;;;;8.30;1.30;;;13.00;99.90;;;;;;4942650;28;20118;-81
2023/08/07 03:51:25;;;;;;;8.85;1.05;;;12.90;99.90;;;;;;4939714;28;20027;-81
2023/08/07 03:53:53;;;;;;;8.32;1.77;;;12.90;99.90;;;;;;4956970;28;20032;-87
2023/08/07 03:56:20;;;;;;;5.07;0.73;;;12.90;99.90;;;;;;4943247;28;20118;-81
2023/08/07 03:58:45;;;;;;;5.10;0.80;;;12.90;99.90;;;;;;4957069;28;20122;-81
2023/08/07 04:01:12;;;;;;;6.82;1.00;;;12.90;99.90;;;;;;4941897;28;20895;-81
2023/08/07 04:03:39;;;;;;;6.95;0.90;;;12.90;99.90;;;;;;4965280;28;20352;-81
2023/08/07 04:06:05;;;;;;;8.45;1.05;;;12.90;99.90;;;;;;4944542;28;20054;-82
2023/08/07 04:08:31;;;;;;;8.82;0.90;;;12.90;99.90;;;;;;4957857;28;20039;-81
2023/08/07 04:11:07;;;;;;;8.25;1.05;;;12.90;99.90;;;;;;4944386;28;20039;-81
2023/08/07 04:13:35;;;;;;;11.43;1.60;;;12.90;99.90;;;;;;4958543;28;20094;-81
2023/08/07 04:16:04;;;;;;;8.85;1.27;;;13.00;99.90;;;;;;4939907;28;20044;-82
2023/08/07 04:18:30;;;;;;;7.22;0.90;;;12.90;99.90;;;;;;4944502;28;20058;-81
2023/08/07 04:20:57;;;;;;;8.18;1.10;;;12.90;99.90;;;;;;4943374;28;20451;-83
2023/08/07 04:23:23;;;;;;;8.02;0.93;;;12.90;99.90;;;;;;4950410;28;20464;-81
2023/08/07 04:25:49;;;;;;;3.90;0.70;;;12.90;99.90;;;;;;4947042;28;20027;-85
2023/08/07 04:28:16;;;;;;;8.73;0.85;;;12.90;99.90;;;;;;4941180;28;20529;-81
2023/08/07 04:30:42;;;;;;;4.43;0.70;;;13.00;99.90;;;;;;4954906;28;20063;-80
2023/08/07 04:33:08;;;;;;;5.07;0.68;;;13.00;99.90;;;;;;4939836;28;20109;-83
2023/08/07 04:35:34;;;;;;;6.20;1.13;;;13.00;99.90;;;;;;4948872;28;20038;-81
2023/08/07 04:38:02;;;;;;;5.90;0.70;;;13.00;99.90;;;;;;4955865;28;20403;-85
2023/08/07 04:40:28;;;;;;;5.13;0.77;;;13.10;99.90;;;;;;4943564;28;20027;-81
2023/08/07 04:42:55;;;;;;;6.25;0.98;;;13.00;99.90;;;;;;4964207;28;20038;-83
2023/08/07 04:45:21;;;;;;;8.15;0.60;;;13.10;99.90;;;;;;4951044;28;20033;-81
2023/08/07 04:47:47;;;;;;;4.45;0.50;;;13.10;99.90;;;;;;4959257;28;20036;-80
2023/08/07 04:50:13;;;;;;;7.60;0.90;;;13.10;99.90;;;;;;4964798;28;20114;-81
2023/08/07 04:52:39;;;;;;;6.00;0.50;;;13.20;99.90;;;;;;4945428;28;20111;-82
2023/08/07 04:55:05;;;;;;;6.50;0.65;;;13.20;99.90;;;;;;4941107;28;20430;-83
2023/08/07 04:57:30;;;;;;;4.65;0.60;;;13.20;99.90;;;;;;4945328;28;20471;-81
2023/08/07 04:59:56;;;;;;;5.95;0.50;;;13.20;99.90;;;;;;4965526;28;20055;-82
2023/08/07 05:02:22;;;;;;;3.40;0.60;;;13.20;99.90;;;;;;4961057;28;20111;-90
2023/08/07 05:04:48;;;;;;;6.00;0.70;;;13.30;99.90;;;;;;4960241;28;20739;-80
2023/08/07 05:07:14;;;;;;;4.50;0.60;;;13.30;99.90;;;;;;4956438;28;20042;-81
2023/08/07 05:09:39;;;;;;;5.47;0.70;;;13.30;99.90;;;;;;4940887;28;20027;-82
2023/08/07 05:12:06;;;;;;;3.30;0.50;;;13.30;99.90;;;;;;4951987;28;20027;-81
2023/08/07 05:14:32;;;;;;;5.03;0.60;;;13.30;99.90;;;;;;4956172;28;20027;-81
2023/08/07 05:16:59;;;;;;;8.43;0.70;;;13.30;99.90;;;;;;4960966;28;20433;-81
2023/08/07 05:19:25;;;;;;;4.90;0.63;;;13.30;99.90;;;;;;4962725;28;20379;-82
2023/08/07 05:21:51;;;;;;;2.90;0.60;;;13.30;99.90;;;;;;4947198;28;20463;-85
2023/08/07 05:24:20;;;;;;;7.03;1.17;;;13.30;99.90;;;;;;4945500;28;20038;-82
2023/08/07 05:26:45;;;;;;;3.92;1.63;;;13.30;99.90;;;;;;4905624;28;20087;-82
2023/08/07 05:29:11;;;;;;;4.95;0.77;;;13.30;99.90;;;;;;4941042;28;20071;-81
2023/08/07 05:31:37;;;;;;;3.60;0.50;;;13.30;99.90;;;;;;4954006;28;20024;-86
2023/08/07 05:34:03;;;;;;;5.07;0.73;;;13.30;99.90;;;;;;4952260;28;20051;-81
2023/08/07 05:36:31;;;;;;;8.25;0.77;;;13.30;99.90;;;;;;4949260;29;20491;-81
2023/08/07 05:38:57;;;;;;;6.22;0.88;;;13.30;99.90;;;;;;4944582;29;20067;-85
2023/08/07 05:41:22;;;;;;;6.10;0.70;;;13.30;99.90;;;;;;4934653;29;20034;-84
2023/08/07 05:43:48;;;;;;;5.32;1.10;;;13.30;99.90;;;;;;4929529;29;20078;-86
2023/08/07 05:46:14;;;;;;;6.53;1.17;;;13.30;99.90;;;;;;4949800;29;20129;-82
2023/08/07 05:48:40;;;;;;;4.97;0.85;;;13.40;99.90;;;;;;4934578;29;20051;-82
2023/08/07 05:51:07;;;;;;;7.55;1.00;;;13.30;99.90;;;;;;4945591;28;20085;-85
2023/08/07 05:53:35;;;;;;;11.52;1.60;;;13.40;99.90;;;;;;4950945;29;20099;-83
2023/08/07 05:56:00;;;;;;;13.32;1.30;;;13.40;99.90;;;;;;4946297;29;20106;-81
2023/08/07 05:58:26;;;;;;;6.32;1.20;;;13.40;99.90;;;;;;4949945;28;20114;-83
2023/08/07 06:00:52;;;;;;;5.85;1.15;;;13.40;99.90;;;;;;4934288;29;20026;-81
2023/08/07 06:03:18;;;;;;;10.85;1.23;;;13.40;99.90;;;;;;4950704;28;20031;-82
2023/08/07 06:05:44;;;;;;;6.38;1.30;;;13.40;99.90;;;;;;4934694;29;20043;-81
2023/08/07 06:08:09;;;;;;;8.13;1.42;;;13.50;99.90;;;;;;4959821;28;20186;-81
2023/08/07 06:10:36;;;;;;;9.05;1.42;;;13.50;99.90;;;;;;4949735;29;20130;-81
2023/08/07 06:13:01;;;;;;;8.30;1.55;;;13.50;99.90;;;;;;4943698;28;20287;-81
2023/08/07 06:15:29;;;;;;;10.48;1.40;;;13.50;99.90;;;;;;4950031;29;20289;-82
2023/08/07 06:17:54;;;;;;;8.45;1.30;;;13.50;99.90;;;;;;4925102;28;20451;-83
2023/08/07 06:20:21;;;;;;;9.02;1.08;;;13.60;99.90;;;;;;4929823;29;20031;-85
2023/08/07 06:22:46;;;;;;;11.18;1.20;;;13.60;99.90;;;;;;4948260;29;20028;-85
2023/08/07 06:25:12;;;;;;;8.40;1.40;;;13.60;99.90;;;;;;4961507;28;20086;-83
2023/08/07 06:27:38;;;;;;;11.68;1.45;;;13.70;99.90;;;;;;4947852;28;20037;-83
2023/08/07 06:30:05;;;;;;;11.60;1.20;;;13.70;99.90;;;;;;4949151;29;20062;-84
2023/08/07 06:32:31;;;;;;;7.65;1.33;;;13.70;99.90;;;;;;4947132;28;20047;-82
2023/08/07 06:34:57;;;;;;;6.30;1.17;;;13.80;99.90;;;;;;4930137;29;20507;-82
2023/08/07 06:37:23;;;;;;;8.07;1.17;;;13.80;99.90;;;;;;4933477;29;20035;-81
2023/08/07 06:39:49;;;;;;;7.32;1.20;;;13.90;99.90;;;;;;4949934;29;20038;-82
2023/08/07 06:42:15;;;;;;;7.22;1.42;;;13.90;99.90;;;;;;4932724;29;20023;-83
2023/08/07 06:44:43;;;;;;;8.45;1.60;;;13.90;99.90;;;;;;4932389;29;20522;-91
2023/08/07 06:47:09;;;;;;;9.48;2.10;;;13.90;99.90;;;;;;4926842;29;20055;-87
2023/08/07 06:49:35;;;;;;;9.55;2.05;;;13.90;99.90;;;;;;4933825;29;20023;-80
2023/08/07 06:52:01;;;;;;;10.20;1.73;;;13.90;99.90;;;;;;4943480;29;20035;-81
2023/08/07 06:54:26;;;;;;;8.25;1.27;;;13.90;99.90;;;;;;4928465;29;20027;-81
2023/08/07 06:56:52;;;;;;;8.85;1.30;;;13.90;99.90;;;;;;4927176;29;20150;-81
2023/08/07 06:59:17;;;;;;;8.48;1.63;;;14.00;99.90;;;;;;4947883;29;20483;-80
2023/08/07 07:01:43;;;;;;;9.30;1.50;;;14.00;99.90;;;;;;4947123;29;20027;-81
2023/08/07 07:04:09;;;;;;;8.73;1.20;;;14.00;99.90;;;;;;4948206;28;20038;-82
2023/08/07 07:06:36;;;;;;;9.77;1.60;;;14.10;99.90;;;;;;4945452;29;20475;-81
2023/08/07 07:09:02;;;;;;;10.23;1.50;;;14.20;99.90;;;;;;4948350;29;20062;-82
2023/08/07 07:11:28;;;;;;;10.48;1.60;;;14.20;99.90;;;;;;4946673;29;20074;-81
2023/08/07 07:13:54;;;;;;;8.48;1.40;;;14.30;99.90;;;;;;4943904;28;20131;-81
2023/08/07 07:16:21;;;;;;;13.98;1.92;;;14.50;99.90;;;;;;4946576;28;20260;-81
2023/08/07 07:18:55;;;;;;;9.10;1.30;;;14.60;99.90;;;;;;4948569;29;20113;-92
2023/08/07 07:21:21;;;;;;;11.05;1.45;;;14.60;99.90;;;;;;4948457;29;20023;-82
2023/08/07 07:23:47;;;;;;;10.60;1.33;;;14.60;99.90;;;;;;4943985;29;20035;-82
2023/08/07 07:26:13;;;;;;;7.65;1.50;;;14.50;99.90;;;;;;4949588;29;20040;-81
2023/08/07 07:28:38;;;;;;;13.20;1.45;;;14.50;99.90;;;;;;4925664;29;20023;-82
2023/08/07 07:31:04;;;;;;;6.20;1.02;;;14.50;99.90;;;;;;4943936;29;20039;-82
2023/08/07 07:33:31;;;;;;;10.57;1.65;;;14.70;99.90;;;;;;4955852;28;20047;-82
2023/08/07 07:35:56;;;;;;;5.72;1.10;;;14.80;99.90;;;;;;4924268;29;20151;-81
2023/08/07 07:38:22;;;;;;;10.93;1.42;;;14.90;99.90;;;;;;4947628;28;20023;-87
2023/08/07 07:40:48;;;;;;;7.97;1.25;;;14.80;99.90;;;;;;4926002;29;20456;-85
2023/08/07 07:43:13;;;;;;;5.95;1.02;;;14.80;99.90;;;;;;4944824;28;20083;-82
2023/08/07 07:45:39;;;;;;;9.48;1.27;;;14.90;99.90;;;;;;4947183;28;20038;-86
2023/08/07 07:48:06;;;;;;;7.40;0.93;;;15.00;99.90;;;;;;4925564;29;20035;-82
2023/08/07 07:50:32;;;;;;;8.32;1.25;;;15.00;99.90;;;;;;4932474;29;20020;-86
2023/08/07 07:52:58;;;;;;;9.27;1.00;;;15.10;99.90;;;;;;4927900;29;20574;-84
2023/08/07 07:55:25;;;;;;;8.20;1.30;;;15.10;99.90;;;;;;4932586;29;20168;-81
2023/08/07 07:57:51;;;;;;;9.25;1.38;;;15.20;99.90;;;;;;4947756;28;20031;-88
2023/08/07 08:00:17;;;;;;;10.13;1.02;;;15.20;99.90;;;;;;4930982;29;20031;-82
2023/08/07 08:02:43;;;;;;;5.68;0.90;;;15.10;99.90;;;;;;4944769;29;20119;-82
2023/08/07 08:05:12;;;;;;;8.48;1.35;;;15.10;99.90;;;;;;4946904;28;20836;-82
2023/08/07 08:07:42;;;;;;;9.48;1.25;;;15.70;99.90;;;;;;4929389;29;20494;-81
2023/08/07 08:10:08;;;;;;;11.35;1.30;;;16.00;99.90;;;;;;4930780;29;20090;-88
2023/08/07 08:12:35;;;;;;;11.43;1.30;;;15.90;99.90;;;;;;4946132;29;20090;-80
2023/08/07 08:15:01;;;;;;;7.20;1.10;;;16.00;99.90;;;;;;4948898;29;20082;-81
2023/08/07 08:17:27;;;;;;;8.70;1.00;;;16.20;99.90;;;;;;4947073;29;20039;-89
2023/08/07 08:19:52;;;;;;;7.00;1.15;;;15.90;99.90;;;;;;4930515;29;20028;-82
2023/08/07 08:22:18;;;;;;;11.95;1.42;;;15.70;99.90;;;;;;4947968;28;20115;-81
2023/08/07 08:24:44;;;;;;;11.80;1.40;;;15.60;99.90;;;;;;4944993;29;20039;-80
2023/08/07 08:27:10;;;;;;;8.82;1.48;;;15.30;99.90;;;;;;4927884;29;20031;-80
2023/08/07 08:29:36;;;;;;;7.78;1.48;;;14.80;99.90;;;;;;4945351;29;20463;-82
2023/08/07 08:32:01;;;;;;;6.97;0.90;;;14.60;99.90;;;;;;4931335;29;20097;-82
2023/08/07 08:34:27;;;;;;;9.18;1.00;;;14.20;99.90;;;;;;4944772;28;20539;-82
2023/08/07 08:36:53;;;;;;;8.40;1.10;;;14.20;99.90;;;;;;4943214;29;20946;-80
2023/08/07 08:39:19;;;;;;;8.23;1.10;;;14.20;99.90;;;;;;4942581;29;20038;-85
2023/08/07 08:41:49;;;;;;;12.38;1.30;;;14.30;99.90;;;;;;4942591;29;20058;-82
2023/08/07 08:44:19;;;;;;;10.05;1.65;;;14.60;99.90;;;;;;4929959;28;20028;-86
2023/08/07 08:46:46;;;;;;;;;;;15.10;99.90;;;;;;4943501;28;20118;-81
2023/08/07 08:49:18;;;;;;;7.88;1.40;;;15.30;99.90;;;;;;4943819;28;19914;-81
2023/08/07 08:51:44;;;;;;;11.45;1.90;;;15.60;99.90;;;;;;4946948;29;20031;-83
2023/08/07 08:54:10;;;;;;;7.40;1.38;;;15.50;99.90;;;;;;4948926;28;20050;-82
2023/08/07 08:56:37;;;;;;;9.15;1.15;;;15.80;99.90;;;;;;4949255;29;21876;-83
2023/08/07 08:59:03;;;;;;;8.15;1.27;;;16.00;99.90;;;;;;4963552;28;20112;-82
2023/08/07 09:01:30;;;;;;;8.75;0.93;;;16.10;99.90;;;;;;4948394;28;20058;-83
2023/08/07 09:03:56;;;;;;;7.22;1.10;;;16.30;99.90;;;;;;4945172;29;20057;-83
2023/08/07 09:06:23;;;;;;;7.07;1.10;;;16.00;99.90;;;;;;4931509;29;20040;-83
2023/08/07 09:08:50;;;;;;;5.20;0.90;;;15.70;99.90;;;;;;4946514;28;20377;-82
2023/08/07 09:11:17;;;;;;;5.60;0.82;;;15.40;99.90;;;;;;4928007;29;20028;-83
2023/08/07 09:13:47;;;;;;;6.50;1.00;;;15.20;99.90;;;;;;4931718;29;20093;-82
2023/08/07 09:16:13;;;;;;;8.00;1.25;;;15.10;99.90;;;;;;4930669;29;20599;-82
2023/08/07 09:18:39;;;;;;;6.88;1.15;;;15.10;99.90;;;;;;4948977;29;20057;-82
2023/08/07 09:21:04;;;;;;;6.13;0.85;;;14.80;99.90;;;;;;4931994;29;20507;-81
2023/08/07 09:23:31;;;;;;;7.97;0.98;;;14.60;99.90;;;;;;4946221;29;20023;-82
2023/08/07 09:26:01;;;;;;;8.30;1.70;;;14.60;99.90;;;;;;4947398;29;20031;-82
2023/08/07 09:28:29;;;;;;;8.07;1.23;;;14.70;99.90;;;;;;4948040;29;20031;-82
2023/08/07 09:30:55;;;;;;;10.15;1.38;;;15.00;99.90;;;;;;4946038;29;20109;-84
2023/08/07 09:33:26;;;;;;;8.93;1.52;;;15.30;99.90;;;;;;4947555;29;20043;-83
2023/08/07 09:35:52;;;;;;;9.68;1.38;;;15.80;99.90;;;;;;4946854;28;20502;-82
2023/08/07 09:38:18;;;;;;;9.52;1.17;;;16.00;99.90;;;;;;4948476;28;20117;-81
2023/08/07 09:40:44;;;;;;;6.70;1.35;;;16.10;99.90;;;;;;4930729;29;20186;-81
2023/08/07 09:43:11;;;;;;;8.52;1.27;;;16.40;99.90;;;;;;4946440;28;20037;-81
2023/08/07 09:45:40;;;;;;;5.95;0.98;;;16.60;99.90;;;;;;4947027;29;20030;-84
2023/08/07 09:48:06;;;;;;;7.43;1.13;;;16.80;99.90;;;;;;4944931;28;20031;-82
2023/08/07 09:50:32;;;;;;;7.97;1.17;;;16.80;99.90;;;;;;4945774;29;20047;-81
2023/08/07 09:52:58;;;;;;;5.25;0.70;;;16.80;99.90;;;;;;4930839;29;20048;-82
2023/08/07 09:55:25;;;;;;;7.75;1.25;;;16.80;99.90;;;;;;4947948;28;20035;-80
2023/08/07 09:57:51;;;;;;;5.97;0.80;;;16.70;99.90;;;;;;4946153;28;20023;-83
2023/08/07 10:00:19;;;;;;;5.22;0.73;;;16.30;99.90;;;;;;4946473;28;20046;-82
2023/08/07 10:02:50;;;;;;;6.53;0.60;;;16.00;99.90;;;;;;4943297;29;20039;-81
2023/08/07 10:05:16;;;;;;;8.18;0.82;;;15.60;99.90;;;;;;4944821;28;20035;-82
2023/08/07 10:07:42;;;;;;;6.35;0.93;;;15.70;99.90;;;;;;4945083;29;20035;-81
2023/08/07 10:10:09;;;;;;;6.82;0.90;;;15.90;99.90;;;;;;4946199;28;20367;-82
2023/08/07 10:12:37;;;;;;;7.28;0.80;;;16.40;99.90;;;;;;4947163;29;20031;-82
2023/08/07 10:15:03;;;;;;;6.25;0.80;;;16.70;99.90;;;;;;4946895;29;20031;-82
2023/08/07 10:17:31;;;;;;;6.50;0.95;;;16.80;99.90;;;;;;4931440;29;20027;-83
2023/08/07 10:19:57;;;;;;;7.25;0.70;;;16.80;99.90;;;;;;4946517;28;20443;-82
2023/08/07 10:22:29;;;;;;;10.13;0.70;;;17.00;99.90;;;;;;4942447;29;20034;-84
2023/08/07 10:24:57;;;;;;;7.70;0.80;;;16.90;99.90;;;;;;4945602;28;20035;-84
2023/08/07 10:27:24;;;;;;;4.25;0.70;;;16.90;99.90;;;;;;4930355;29;20042;-81
2023/08/07 10:29:52;;;;;;;5.35;0.70;;;17.20;99.90;;;;;;4930561;29;20045;-82
2023/08/07 10:32:20;;;;;;;4.43;0.73;;;17.40;99.90;;;;;;4946468;29;20032;-81
2023/08/07 10:34:52;;;;;;;4.70;0.82;;;17.90;99.90;;;;;;4945983;28;20472;-82
2023/08/07 10:37:41;;;;;;;6.20;0.80;;;17.80;99.90;;;;;;4946330;29;20149;-82
2023/08/07 10:40:12;;;;;;;7.03;0.70;;;17.50;99.90;;;;;;4945850;29;20031;-83
2023/08/07 10:43:11;;;;;;;6.32;0.50;;;17.00;99.90;;;;;;4946308;29;20275;-84
2023/08/07 10:45:38;;;;;;;4.22;0.50;;;16.80;99.90;;;;;;4944635;28;20027;-83
2023/08/07 10:48:10;;;;;;;6.60;0.70;;;17.20;99.90;;;;;;4944850;29;20079;-82
2023/08/07 10:51:02;;;;;;;5.60;0.88;;;17.30;99.90;;;;;;4929044;29;20467;-83
2023/08/07 10:53:35;;;;;;;6.80;0.63;;;17.30;99.90;;;;;;4944844;29;20676;-84
2023/08/07 10:56:07;;;;;;;4.35;0.60;;;17.70;99.90;;;;;;4958931;28;20031;-81
2023/08/07 10:58:35;;;;;;;5.70;0.50;;;17.80;99.90;;;;;;4946473;29;20487;-84
2023/08/07 11:01:26;;;;;;;3.75;0.60;;;17.60;99.90;;;;;;4959022;28;20038;-83
2023/08/07 11:03:55;;;;;;;6.28;0.88;;;17.40;99.90;;;;;;4944814;28;20030;-82
2023/08/07 11:06:32;;;;;;;5.95;0.60;;;17.50;99.90;;;;;;4944031;29;20034;-82
2023/08/07 11:09:04;;;;;;;3.88;0.63;;;17.80;99.90;;;;;;4945317;28;20423;-82
2023/08/07 11:11:39;;;;;;;4.80;0.60;;;17.90;99.90;;;;;;4944197;28;20146;-81
2023/08/07 11:14:06;;;;;;;8.70;1.35;;;18.00;99.90;;;;;;4941382;28;20144;-85
2023/08/07 11:16:33;;;;;;;8.13;0.90;;;17.80;99.90;;;;;;4928249;29;20057;-86
2023/08/07 11:18:59;;;;;;;4.30;0.55;;;17.90;99.90;;;;;;4960469;28;20087;-83
2023/08/07 11:21:25;;;;;;;6.47;0.63;;;18.30;99.90;;;;;;4945331;28;20054;-82
2023/08/07 11:23:51;;;;;;;3.95;0.50;;;17.90;99.90;;;;;;4930358;29;20059;-82
2023/08/07 11:26:17;;;;;;;4.95;0.60;;;18.40;99.90;;;;;;4930883;29;20494;-82
2023/08/07 11:28:43;;;;;;;3.20;0.60;;;18.10;99.90;;;;;;4929403;29;20186;-82
2023/08/07 11:31:08;;;;;;;4.93;0.70;;;17.80;99.90;;;;;;4943759;28;20027;-81
2023/08/07 11:33:36;;;;;;;3.83;0.73;;;17.80;99.90;;;;;;4943536;28;20062;-81
2023/08/07 11:36:02;;;;;;;7.55;0.60;;;18.20;99.90;;;;;;4942624;29;20400;-81
2023/08/07 11:38:31;;;;;;;4.63;0.70;;;18.30;99.90;;;;;;4921285;29;20041;-81
2023/08/07 11:41:05;;;;;;;9.57;0.85;;;18.20;99.90;;;;;;4930397;29;20102;-81
2023/08/07 11:43:32;;;;;;;3.92;0.60;;;17.90;99.90;;;;;;4937832;29;20534;-86
2023/08/07 11:46:02;;;;;;;4.32;0.50;;;17.90;99.90;;;;;;4928081;29;20162;-82
2023/08/07 11:48:30;;;;;;;5.22;0.50;;;17.70;99.90;;;;;;4948089;29;20475;-82
2023/08/07 11:50:57;;;;;;;6.72;0.68;;;17.80;99.90;;;;;;4944140;29;20134;-90
2023/08/07 11:53:25;;;;;;;6.43;0.52;;;17.70;99.90;;;;;;4941370;29;20050;-82
2023/08/07 11:55:55;;;;;;;5.57;0.57;;;17.60;99.90;;;;;;4945184;29;20507;-84
2023/08/07 11:58:22;;;;;;;4.43;0.50;;;17.10;99.90;;;;;;4943070;29;20042;-81
2023/08/07 12:00:48;;;;;;;4.50;0.60;;;17.00;99.90;;;;;;4930040;29;20043;-80
2023/08/07 12:03:27;;;;;;;3.60;0.60;;;17.00;99.90;;;;;;4929055;29;20131;-83
2023/08/07 12:05:55;;;;;;;5.90;0.70;;;17.20;99.90;;;;;;4928351;29;20020;-81
2023/08/07 12:08:21;;;;;;;4.20;0.65;;;17.60;99.90;;;;;;4960208;28;20400;-83
2023/08/07 12:10:54;;;;;;;6.40;0.88;;;17.70;99.90;;;;;;4944648;28;20652;-83
2023/08/07 12:13:27;;;;;;;5.72;0.63;;;17.40;99.90;;;;;;4942493;29;20126;-81
2023/08/07 12:15:56;;;;;;;3.63;0.60;;;17.30;99.90;;;;;;4950213;28;20031;-82
2023/08/07 12:18:23;;;;;;;6.60;0.60;;;17.10;99.90;;;;;;4942680;28;20031;-82
2023/08/07 12:20:56;;;;;;;5.60;0.60;;;16.90;99.90;;;;;;4928898;29;20034;-81
2023/08/07 12:23:22;;;;;;;3.80;0.55;;;16.40;99.90;;;;;;4959733;28;20047;-83
2023/08/07 12:25:48;;;;;;;7.30;0.70;;;16.40;99.90;;;;;;4944906;28;20035;-82
2023/08/07 12:28:16;;;;;;;5.57;0.50;;;17.00;99.90;;;;;;4944020;29;20078;-83
2023/08/07 12:30:47;;;;;;;2.97;0.55;;;17.70;99.90;;;;;;4943459;29;20039;-82
2023/08/07 12:33:13;;;;;;;5.72;0.63;;;18.20;99.90;;;;;;4927930;29;20047;-82
2023/08/07 12:35:40;;;;;;;4.57;0.50;;;18.00;99.90;;;;;;4944855;28;20027;-82
2023/08/07 12:38:05;;;;;;;4.88;0.80;;;17.80;99.90;;;;;;4927927;29;20122;-83
2023/08/07 12:40:31;;;;;;;5.38;0.50;;;18.10;99.90;;;;;;4928603;29;20114;-81
2023/08/07 12:42:59;;;;;;;4.95;0.60;;;17.80;99.90;;;;;;4944437;29;20024;-82
2023/08/07 12:45:24;;;;;;;4.95;0.47;;;17.60;99.90;;;;;;4942193;29;20042;-82